KMRH

Michael J Smith Field Airport

Beaufort, North Carolina, USA
METAR KMRH 191758Z AUTO 32008KT 10SM FEW050 31/21 A2992 RMK AO2 SLP131 T03110211 58010
Observed Flight Rules
Sep-19 @ 17:58 UTC (49 minutes ago) Visual Flight Rules
Wind Visibility Clouds
320° at 8 knots 10 miles
  • Few at 5,000' AGL
Temperatures Readings
Current 31°C / 88°F
Dewpoint 21°C / 70°F
Humidity 55%
Altimeter 29.92" Hg
Pressure 1013.1 hPa
Elevation 3
METAR KMRH 191758Z AUTO 32008KT 10SM FEW050 31/21 A2992 RMK AO2 SLP131 T03110211 58010
Observed Flight Rules
Sep-19 @ 17:58 UTC
(49 minutes ago)
VFR
Wind Visibility
320° at 8 knots 10 miles
Clouds
  • Few at 5,000' AGL
Temperature Dewpoint
31°C / 88°F 21°C / 70°F
Humidity Altimeter Pressure
55% 29.92" Hg 1013.1 hPa